Time;durP1;ratioP1;P1;durP2;ratioP2;P2;SDS_P1;SDS_P2;PMS_P1;PMS_P2;Temp;Humidity;BMP_temperature;BMP_pressure;BME280_temperature;BME280_humidity;BME280_pressure;Samples;Min_cycle;Max_cycle;Signal;HPM_P1;HPM_P2
2023/07/31 04:35:25;;;;;;;1.40;1.30;;;;;;;;;;5790209;23;20577;-76
2023/07/31 04:37:53;;;;;;;1.95;1.10;;;;;;;;;;4993684;28;20230;-76
2023/07/31 04:40:21;;;;;;;1.40;1.30;;;;;;;;;;4994345;28;20203;-76
2023/07/31 04:42:48;;;;;;;1.00;1.00;;;;;;;;;;4993467;28;20728;-76
2023/07/31 04:45:15;;;;;;;1.27;1.27;;;;;;;;;;4993669;28;20230;-76
2023/07/31 04:47:42;;;;;;;1.00;1.00;;;;;;;;;;4993355;28;20680;-75
2023/07/31 04:50:09;;;;;;;1.13;1.05;;;;;;;;;;4996932;28;20716;-73
2023/07/31 04:52:37;;;;;;;1.30;1.30;;;;;;;;;;4996812;28;20599;-70
2023/07/31 04:55:05;;;;;;;1.10;1.10;;;;;;;;;;4996963;28;20229;-71
2023/07/31 04:57:32;;;;;;;1.40;1.40;;;;;;;;;;4997048;28;20203;-71
2023/07/31 04:59:59;;;;;;;1.20;1.20;;;;;;;;;;4996996;28;20221;-71
2023/07/31 05:02:26;;;;;;;1.20;1.13;;;;;;;;;;4997036;28;20202;-71
2023/07/31 05:04:53;;;;;;;1.00;1.00;;;;;;;;;;4997020;28;20593;-70
2023/07/31 05:07:20;;;;;;;1.17;1.17;;;;;;;;;;4996806;28;20210;-70
2023/07/31 05:09:47;;;;;;;1.00;1.00;;;;;;;;;;4996806;28;20203;-70
2023/07/31 05:12:16;;;;;;;1.02;1.02;;;;;;;;;;4996765;28;20550;-70
2023/07/31 05:14:43;;;;;;;1.52;1.42;;;;;;;;;;4996426;28;20701;-71
2023/07/31 05:17:10;;;;;;;1.40;1.40;;;;;;;;;;4996429;28;20207;-70
2023/07/31 05:19:37;;;;;;;1.00;1.00;;;;;;;;;;4996646;28;20206;-72
2023/07/31 05:22:04;;;;;;;1.52;1.42;;;;;;;;;;4996518;28;20207;-69
2023/07/31 05:24:31;;;;;;;1.00;1.00;;;;;;;;;;4996335;28;20219;-70
2023/07/31 05:26:58;;;;;;;1.05;1.05;;;;;;;;;;4996141;28;20662;-70
2023/07/31 05:29:27;;;;;;;0.98;0.98;;;;;;;;;;4996382;28;20203;-69
2023/07/31 05:31:54;;;;;;;1.98;1.20;;;;;;;;;;4996383;28;20253;-69
2023/07/31 05:34:21;;;;;;;1.10;1.00;;;;;;;;;;4996317;28;20203;-70
2023/07/31 05:36:48;;;;;;;1.73;1.60;;;;;;;;;;4996340;28;20210;-73
2023/07/31 05:39:15;;;;;;;1.40;1.30;;;;;;;;;;4997050;28;20214;-74
2023/07/31 05:41:42;;;;;;;1.17;1.10;;;;;;;;;;4996080;28;20689;-74
2023/07/31 05:44:09;;;;;;;1.40;1.30;;;;;;;;;;4995879;28;20728;-74
2023/07/31 05:46:38;;;;;;;1.27;1.20;;;;;;;;;;4995772;28;20229;-74
2023/07/31 05:49:05;;;;;;;1.10;1.10;;;;;;;;;;4996211;28;20205;-74
2023/07/31 05:51:32;;;;;;;1.23;1.20;;;;;;;;;;4996121;28;20207;-74
2023/07/31 05:53:59;;;;;;;1.10;1.10;;;;;;;;;;4996052;28;20206;-74
2023/07/31 05:56:27;;;;;;;1.05;1.05;;;;;;;;;;4995897;28;20229;-73
2023/07/31 05:58:54;;;;;;;1.10;1.10;;;;;;;;;;4995878;28;20203;-74
2023/07/31 06:01:21;;;;;;;1.00;1.00;;;;;;;;;;4994755;28;20234;-73
2023/07/31 06:03:50;;;;;;;1.23;1.20;;;;;;;;;;4995369;28;20716;-74
2023/07/31 06:06:18;;;;;;;1.50;1.40;;;;;;;;;;4995719;28;20226;-74
2023/07/31 06:08:45;;;;;;;1.50;1.40;;;;;;;;;;4995795;28;20203;-73
2023/07/31 06:11:12;;;;;;;1.88;1.23;;;;;;;;;;4995580;28;20573;-73
2023/07/31 06:13:39;;;;;;;1.40;1.30;;;;;;;;;;4995329;28;20662;-73
2023/07/31 06:16:06;;;;;;;1.17;1.08;;;;;;;;;;4995444;28;20230;-73
2023/07/31 06:18:33;;;;;;;1.10;1.10;;;;;;;;;;4995276;28;20207;-73
2023/07/31 06:21:01;;;;;;;1.50;1.25;;;;;;;;;;4995487;28;20218;-74
2023/07/31 06:23:28;;;;;;;1.20;1.20;;;;;;;;;;4995349;28;20238;-73
2023/07/31 06:25:55;;;;;;;1.10;1.10;;;;;;;;;;4995056;28;20720;-74
2023/07/31 06:28:23;;;;;;;1.23;1.23;;;;;;;;;;4995098;28;20637;-73
2023/07/31 06:30:50;;;;;;;1.05;1.05;;;;;;;;;;4995414;28;20202;-74
2023/07/31 06:33:17;;;;;;;1.13;1.13;;;;;;;;;;4995259;28;20202;-73
2023/07/31 06:35:44;;;;;;;0.98;0.98;;;;;;;;;;4995225;28;20230;-73
2023/07/31 06:38:12;;;;;;;1.10;1.10;;;;;;;;;;4995010;28;20211;-73
2023/07/31 06:40:39;;;;;;;1.30;1.30;;;;;;;;;;4995023;28;20581;-73
2023/07/31 06:43:07;;;;;;;1.35;1.35;;;;;;;;;;4995345;28;20222;-73
2023/07/31 06:45:35;;;;;;;1.40;1.30;;;;;;;;;;4995140;28;20258;-74
2023/07/31 06:48:02;;;;;;;1.33;1.25;;;;;;;;;;4995014;28;20273;-73
2023/07/31 06:50:29;;;;;;;1.05;0.98;;;;;;;;;;4994768;28;20665;-74
2023/07/31 06:52:56;;;;;;;1.25;1.25;;;;;;;;;;4995148;28;20203;-74
2023/07/31 06:55:25;;;;;;;1.05;0.85;;;;;;;;;;4994861;28;20226;-74
2023/07/31 06:57:53;;;;;;;1.08;1.00;;;;;;;;;;4994858;28;20221;-73
2023/07/31 07:00:21;;;;;;;0.93;0.93;;;;;;;;;;4994858;28;20210;-73
2023/07/31 07:02:48;;;;;;;1.25;1.08;;;;;;;;;;4994686;28;20203;-73
2023/07/31 07:05:15;;;;;;;0.88;0.88;;;;;;;;;;4994573;28;20226;-73
2023/07/31 07:07:42;;;;;;;2.75;1.40;;;;;;;;;;4994747;28;20643;-74
2023/07/31 07:10:10;;;;;;;1.08;1.00;;;;;;;;;;4994686;28;20207;-74
2023/07/31 07:12:38;;;;;;;0.90;0.90;;;;;;;;;;4994274;28;20202;-74
2023/07/31 07:15:06;;;;;;;1.20;1.20;;;;;;;;;;4994539;28;20226;-74
2023/07/31 07:17:33;;;;;;;1.10;1.00;;;;;;;;;;4994478;28;20209;-72
2023/07/31 07:20:00;;;;;;;1.10;1.10;;;;;;;;;;4994428;28;20213;-73
2023/07/31 07:22:27;;;;;;;1.50;1.02;;;;;;;;;;4994381;28;20205;-73
2023/07/31 07:24:55;;;;;;;1.05;1.00;;;;;;;;;;4994378;28;20226;-73
2023/07/31 07:27:22;;;;;;;1.02;0.90;;;;;;;;;;4994401;28;20205;-73
2023/07/31 07:29:52;;;;;;;0.73;0.70;;;;;;;;;;4994400;28;20206;-73
2023/07/31 07:32:19;;;;;;;1.10;0.85;;;;;;;;;;4994553;28;20206;-72
2023/07/31 07:34:46;;;;;;;0.93;0.93;;;;;;;;;;4994571;28;20218;-73
2023/07/31 07:37:13;;;;;;;0.90;0.90;;;;;;;;;;4996259;28;20210;-72
2023/07/31 07:39:40;;;;;;;0.75;0.75;;;;;;;;;;5003071;28;20187;-72
2023/07/31 07:42:07;;;;;;;1.27;1.17;;;;;;;;;;5001015;28;20212;-72
2023/07/31 07:44:34;;;;;;;0.90;0.90;;;;;;;;;;4994445;28;20226;-73
2023/07/31 07:47:03;;;;;;;1.83;0.80;;;;;;;;;;4995867;28;20202;-73
2023/07/31 07:49:30;;;;;;;1.10;0.93;;;;;;;;;;4996092;28;20202;-72
2023/07/31 07:51:57;;;;;;;1.13;1.02;;;;;;;;;;4994546;28;20213;-73
2023/07/31 07:54:24;;;;;;;1.40;1.30;;;;;;;;;;4995646;28;20573;-73
2023/07/31 07:56:52;;;;;;;1.00;1.00;;;;;;;;;;4995985;28;20261;-73
2023/07/31 07:59:19;;;;;;;0.82;0.82;;;;;;;;;;4995756;28;20202;-72
2023/07/31 08:01:46;;;;;;;1.45;1.13;;;;;;;;;;4996211;28;20744;-72
2023/07/31 08:04:14;;;;;;;0.68;0.68;;;;;;;;;;4993990;28;20540;-76
2023/07/31 08:06:41;;;;;;;0.90;0.90;;;;;;;;;;4993756;28;20222;-73
2023/07/31 08:09:09;;;;;;;2.47;0.95;;;;;;;;;;4993657;28;20202;-73
2023/07/31 08:11:36;;;;;;;0.75;0.75;;;;;;;;;;4994270;28;20535;-73
2023/07/31 08:14:03;;;;;;;0.93;0.63;;;;;;;;;;4993988;28;20198;-73
2023/07/31 08:16:30;;;;;;;1.58;0.98;;;;;;;;;;4994405;28;20245;-76
2023/07/31 08:18:57;;;;;;;1.00;0.90;;;;;;;;;;4993709;28;20205;-76
2023/07/31 08:21:26;;;;;;;1.30;0.90;;;;;;;;;;4993787;28;20216;-77
2023/07/31 08:23:53;;;;;;;1.25;1.15;;;;;;;;;;4995152;28;20210;-77
2023/07/31 08:26:20;;;;;;;1.77;0.95;;;;;;;;;;4997442;28;20339;-77
2023/07/31 08:28:47;;;;;;;1.30;1.10;;;;;;;;;;4997713;28;20262;-76
2023/07/31 08:31:14;;;;;;;0.90;0.75;;;;;;;;;;4997674;28;20202;-77
2023/07/31 08:33:42;;;;;;;0.63;0.63;;;;;;;;;;4997678;28;20221;-77
2023/07/31 08:36:09;;;;;;;0.80;0.68;;;;;;;;;;4997246;28;20222;-76
2023/07/31 08:38:37;;;;;;;0.73;0.63;;;;;;;;;;4997381;28;20210;-77
2023/07/31 08:41:05;;;;;;;1.70;0.90;;;;;;;;;;4997441;28;20194;-77
2023/07/31 08:43:32;;;;;;;2.20;0.95;;;;;;;;;;4996897;28;20866;-77
2023/07/31 08:45:59;;;;;;;1.08;0.75;;;;;;;;;;4997241;28;20317;-76
2023/07/31 08:48:27;;;;;;;1.10;0.70;;;;;;;;;;4997262;28;20202;-77
2023/07/31 08:50:54;;;;;;;0.90;0.90;;;;;;;;;;4997217;28;20202;-76
2023/07/31 08:53:21;;;;;;;1.40;0.90;;;;;;;;;;4996964;28;20198;-76
2023/07/31 08:55:50;;;;;;;1.58;1.00;;;;;;;;;;4996957;28;20214;-78
2023/07/31 08:58:18;;;;;;;1.08;0.70;;;;;;;;;;4997295;28;20289;-76
2023/07/31 09:00:47;;;;;;;0.80;0.80;;;;;;;;;;4997139;28;20206;-76
2023/07/31 09:03:15;;;;;;;1.02;1.00;;;;;;;;;;4996911;28;20551;-77
2023/07/31 09:05:43;;;;;;;1.10;0.93;;;;;;;;;;4996684;28;20225;-76
2023/07/31 09:08:11;;;;;;;1.48;1.02;;;;;;;;;;4996904;28;20209;-76
2023/07/31 09:10:41;;;;;;;2.45;1.10;;;;;;;;;;4996584;28;20736;-76
2023/07/31 09:13:10;;;;;;;0.80;0.80;;;;;;;;;;4996499;28;20275;-76
2023/07/31 09:15:37;;;;;;;1.70;1.27;;;;;;;;;;4996695;28;20218;-76
2023/07/31 09:18:05;;;;;;;1.33;1.20;;;;;;;;;;4997013;28;20206;-76
2023/07/31 09:20:32;;;;;;;1.38;1.27;;;;;;;;;;4996262;28;20686;-75
2023/07/31 09:23:06;;;;;;;1.75;1.42;;;;;;;;;;4996998;28;20210;-77
2023/07/31 09:25:33;;;;;;;1.20;0.88;;;;;;;;;;4998689;28;20226;-77
2023/07/31 09:28:02;;;;;;;1.13;1.13;;;;;;;;;;4998805;28;20217;-76
2023/07/31 09:30:30;;;;;;;2.33;1.40;;;;;;;;;;4999132;28;20253;-76
2023/07/31 09:33:02;;;;;;;1.90;1.40;;;;;;;;;;4999643;28;20206;-76
2023/07/31 09:35:29;;;;;;;2.47;1.25;;;;;;;;;;5000167;28;20585;-76
2023/07/31 09:37:57;;;;;;;1.25;1.17;;;;;;;;;;4999376;28;20220;-76
2023/07/31 09:40:32;;;;;;;1.75;1.40;;;;;;;;;;4997395;28;20214;-76
2023/07/31 09:43:00;;;;;;;1.65;1.20;;;;;;;;;;4997040;28;20188;-76
2023/07/31 09:45:27;;;;;;;1.70;1.30;;;;;;;;;;4996991;28;20601;-75
2023/07/31 09:47:56;;;;;;;2.30;1.30;;;;;;;;;;4997170;28;20186;-77
2023/07/31 09:50:24;;;;;;;1.05;1.05;;;;;;;;;;4995967;28;20584;-76
2023/07/31 09:52:51;;;;;;;0.95;0.95;;;;;;;;;;4996480;28;20202;-76
2023/07/31 09:55:19;;;;;;;0.65;0.65;;;;;;;;;;4996065;28;20701;-76
2023/07/31 09:57:46;;;;;;;1.42;1.33;;;;;;;;;;4996104;28;20206;-76
2023/07/31 10:00:14;;;;;;;1.05;1.00;;;;;;;;;;4995891;28;20209;-76
2023/07/31 10:02:42;;;;;;;1.92;1.15;;;;;;;;;;4995951;28;20617;-76
2023/07/31 10:05:12;;;;;;;1.67;1.20;;;;;;;;;;4995605;28;20700;-76
2023/07/31 10:07:40;;;;;;;1.25;1.23;;;;;;;;;;4996097;28;20194;-76
2023/07/31 10:10:09;;;;;;;1.40;1.30;;;;;;;;;;4995597;28;20237;-76
2023/07/31 10:12:36;;;;;;;1.05;1.05;;;;;;;;;;4995643;28;20205;-76
2023/07/31 10:15:03;;;;;;;1.50;1.40;;;;;;;;;;4995195;28;20214;-75
2023/07/31 10:17:31;;;;;;;0.95;0.95;;;;;;;;;;4995306;28;20209;-75
2023/07/31 10:19:59;;;;;;;1.00;1.00;;;;;;;;;;4995487;28;20209;-75
2023/07/31 10:22:27;;;;;;;1.75;1.23;;;;;;;;;;4995371;28;20244;-75
2023/07/31 10:24:56;;;;;;;3.25;1.38;;;;;;;;;;4995198;28;20238;-75
2023/07/31 10:27:23;;;;;;;1.20;1.10;;;;;;;;;;4995042;28;20289;-75
2023/07/31 10:29:50;;;;;;;1.60;1.50;;;;;;;;;;4995223;28;20198;-75
2023/07/31 10:32:18;;;;;;;1.42;1.25;;;;;;;;;;4995963;28;20217;-75
2023/07/31 10:34:46;;;;;;;1.35;1.25;;;;;;;;;;4995100;28;20281;-76
2023/07/31 10:37:31;;;;;;;1.52;1.30;;;;;;;;;;4995290;28;20210;-75
2023/07/31 10:40:00;;;;;;;2.70;1.35;;;;;;;;;;4995157;28;20186;-75
2023/07/31 10:42:31;;;;;;;3.40;1.63;;;;;;;;;;4995026;28;20241;-75
2023/07/31 10:44:59;;;;;;;1.25;1.15;;;;;;;;;;4994873;28;20236;-74
2023/07/31 10:47:26;;;;;;;1.35;1.25;;;;;;;;;;4994330;28;20213;-76
2023/07/31 10:49:53;;;;;;;1.45;1.35;;;;;;;;;;4995737;28;20202;-71
2023/07/31 10:52:23;;;;;;;1.20;1.08;;;;;;;;;;4995050;28;20195;-72
2023/07/31 10:54:50;;;;;;;1.55;1.15;;;;;;;;;;4994667;28;20760;-71
2023/07/31 10:57:22;;;;;;;2.35;1.40;;;;;;;;;;4994614;28;20692;-72
2023/07/31 10:59:49;;;;;;;1.45;1.35;;;;;;;;;;4995135;28;20213;-72
2023/07/31 11:02:29;;;;;;;1.98;1.15;;;;;;;;;;4994830;28;20617;-72
2023/07/31 11:05:07;;;;;;;1.83;1.23;;;;;;;;;;4994803;28;20302;-72
2023/07/31 11:07:48;;;;;;;1.67;1.30;;;;;;;;;;4994902;28;20244;-72
2023/07/31 11:10:17;;;;;;;2.03;1.58;;;;;;;;;;4995018;28;20198;-73
2023/07/31 11:12:46;;;;;;;1.77;1.30;;;;;;;;;;4995056;28;20206;-72
2023/07/31 11:15:13;;;;;;;1.77;1.27;;;;;;;;;;4994494;28;20584;-71
2023/07/31 11:17:41;;;;;;;1.48;1.38;;;;;;;;;;4996017;28;20252;-73
2023/07/31 11:20:08;;;;;;;1.23;1.23;;;;;;;;;;5004657;28;20202;-70
2023/07/31 11:22:36;;;;;;;1.55;1.40;;;;;;;;;;5001399;28;20213;-71
2023/07/31 11:25:03;;;;;;;2.20;1.20;;;;;;;;;;4994448;28;20222;-71
2023/07/31 11:27:31;;;;;;;1.45;1.40;;;;;;;;;;4994336;28;20202;-71
2023/07/31 11:30:03;;;;;;;1.08;1.00;;;;;;;;;;4994328;28;20205;-70
2023/07/31 11:32:30;;;;;;;1.20;1.20;;;;;;;;;;4994461;28;20186;-71
2023/07/31 11:34:57;;;;;;;1.50;1.40;;;;;;;;;;4994316;28;20225;-72
2023/07/31 11:37:24;;;;;;;3.67;1.38;;;;;;;;;;4994129;28;20209;-72
2023/07/31 11:40:09;;;;;;;1.20;1.10;;;;;;;;;;4994251;28;20269;-72
2023/07/31 11:42:37;;;;;;;1.50;1.40;;;;;;;;;;4994085;28;20646;-72
2023/07/31 11:45:06;;;;;;;3.83;1.33;;;;;;;;;;4994147;28;20230;-72
2023/07/31 11:47:35;;;;;;;1.17;1.13;;;;;;;;;;4994296;28;20206;-72
2023/07/31 11:50:02;;;;;;;1.00;1.00;;;;;;;;;;4993856;28;20569;-73
2023/07/31 11:52:30;;;;;;;1.02;1.02;;;;;;;;;;4994166;28;20205;-72
2023/07/31 11:54:57;;;;;;;1.50;1.20;;;;;;;;;;4994398;28;20222;-73
2023/07/31 11:57:24;;;;;;;1.15;1.00;;;;;;;;;;4994694;28;20211;-73
2023/07/31 11:59:51;;;;;;;1.15;1.15;;;;;;;;;;4998122;28;20197;-73
2023/07/31 12:02:20;;;;;;;1.00;1.00;;;;;;;;;;4998343;28;20234;-73
2023/07/31 12:04:48;;;;;;;4.47;1.42;;;;;;;;;;4997910;28;20269;-73
2023/07/31 12:07:15;;;;;;;1.85;1.75;;;;;;;;;;4997956;28;20214;-73
2023/07/31 12:09:52;;;;;;;2.15;1.95;;;;;;;;;;4997592;28;20205;-73
2023/07/31 12:12:21;;;;;;;2.70;1.90;;;;;;;;;;4997682;28;20197;-73
2023/07/31 12:14:48;;;;;;;2.78;1.65;;;;;;;;;;4997664;28;20226;-73
2023/07/31 12:17:16;;;;;;;2.78;1.52;;;;;;;;;;4997884;28;20201;-73
2023/07/31 12:19:44;;;;;;;1.73;1.60;;;;;;;;;;4997441;28;20210;-73
2023/07/31 12:22:15;;;;;;;2.58;1.88;;;;;;;;;;4997390;28;20206;-73
2023/07/31 12:24:44;;;;;;;2.13;1.55;;;;;;;;;;4997555;28;20314;-73
2023/07/31 12:27:11;;;;;;;1.50;1.40;;;;;;;;;;4997309;28;20241;-73
2023/07/31 12:29:40;;;;;;;1.92;1.70;;;;;;;;;;4997584;28;20247;-73
2023/07/31 12:32:19;;;;;;;3.35;1.75;;;;;;;;;;4997583;28;20202;-73
2023/07/31 12:34:47;;;;;;;1.63;1.35;;;;;;;;;;4997496;28;20226;-73
2023/07/31 12:37:14;;;;;;;1.67;1.58;;;;;;;;;;4997518;28;20206;-72
2023/07/31 12:39:42;;;;;;;2.08;1.55;;;;;;;;;;4997454;28;20191;-72
2023/07/31 12:42:09;;;;;;;1.40;1.40;;;;;;;;;;4997265;28;20210;-72
2023/07/31 12:44:36;;;;;;;2.33;1.42;;;;;;;;;;4997278;28;20198;-73
2023/07/31 12:47:03;;;;;;;2.33;1.35;;;;;;;;;;4997244;28;20222;-71
2023/07/31 12:49:31;;;;;;;1.40;1.13;;;;;;;;;;4997208;28;20615;-72
2023/07/31 12:51:59;;;;;;;2.95;1.77;;;;;;;;;;4997142;28;20566;-73
2023/07/31 12:54:26;;;;;;;2.10;1.75;;;;;;;;;;4997026;28;20225;-73
2023/07/31 12:56:53;;;;;;;1.30;1.30;;;;;;;;;;4996798;28;20205;-73
2023/07/31 12:59:20;;;;;;;3.13;1.10;;;;;;;;;;4996765;28;20684;-73
2023/07/31 13:01:47;;;;;;;1.80;1.70;;;;;;;;;;4996657;28;20213;-73
2023/07/31 13:04:14;;;;;;;1.10;1.10;;;;;;;;;;4996996;28;20199;-73
2023/07/31 13:06:41;;;;;;;1.30;1.30;;;;;;;;;;4996677;28;20300;-73
2023/07/31 13:09:10;;;;;;;1.25;1.25;;;;;;;;;;4995858;28;20547;-73
2023/07/31 13:11:37;;;;;;;2.78;1.73;;;;;;;;;;4996932;28;20206;-73
2023/07/31 13:14:05;;;;;;;2.25;1.27;;;;;;;;;;4996958;28;20217;-73
2023/07/31 13:16:32;;;;;;;1.20;1.20;;;;;;;;;;4996811;28;20214;-73
2023/07/31 13:18:59;;;;;;;1.08;1.08;;;;;;;;;;4996814;28;20213;-73
2023/07/31 13:21:26;;;;;;;3.10;1.48;;;;;;;;;;4996703;28;20576;-73
2023/07/31 13:23:53;;;;;;;2.88;2.20;;;;;;;;;;4996309;28;20669;-73
2023/07/31 13:26:21;;;;;;;1.85;1.73;;;;;;;;;;4996291;28;20229;-73
2023/07/31 13:28:48;;;;;;;1.55;1.50;;;;;;;;;;4996577;28;20191;-72
2023/07/31 13:31:15;;;;;;;1.73;1.63;;;;;;;;;;4996387;28;20210;-72
2023/07/31 13:33:42;;;;;;;1.73;1.63;;;;;;;;;;4996388;28;20213;-73
2023/07/31 13:36:09;;;;;;;1.85;1.75;;;;;;;;;;4996752;28;20222;-73
2023/07/31 13:38:36;;;;;;;1.92;1.83;;;;;;;;;;4995902;28;20677;-73
2023/07/31 13:41:05;;;;;;;1.38;1.33;;;;;;;;;;4996381;28;20214;-73
2023/07/31 13:43:33;;;;;;;1.27;1.27;;;;;;;;;;4996183;28;20264;-73
2023/07/31 13:46:06;;;;;;;1.08;1.08;;;;;;;;;;4996008;28;20222;-73
2023/07/31 13:48:33;;;;;;;1.42;1.42;;;;;;;;;;4996179;28;20260;-73
2023/07/31 13:51:00;;;;;;;3.50;1.33;;;;;;;;;;4996056;28;20206;-73
2023/07/31 13:53:27;;;;;;;1.30;1.30;;;;;;;;;;4995957;28;20210;-73
2023/07/31 15:16:25;;;;;;;2.00;1.90;;;;;;;;;;5613643;23;20337;-74
2023/07/31 15:18:52;;;;;;;2.45;2.30;;;;;;;;;;4994459;28;20593;-74
2023/07/31 15:21:20;;;;;;;2.00;1.90;;;;;;;;;;4994559;28;20210;-73
2023/07/31 15:23:47;;;;;;;2.10;2.00;;;;;;;;;;4994430;28;20202;-73
2023/07/31 15:26:14;;;;;;;1.98;1.88;;;;;;;;;;4994590;28;20226;-72
2023/07/31 15:28:41;;;;;;;2.83;2.63;;;;;;;;;;4994363;28;20210;-72
2023/07/31 15:31:09;;;;;;;1.92;1.83;;;;;;;;;;4994851;28;20202;-72
2023/07/31 15:33:37;;;;;;;1.98;1.85;;;;;;;;;;4993654;28;20644;-72
2023/07/31 15:36:04;;;;;;;2.20;2.10;;;;;;;;;;4994206;28;20214;-72
2023/07/31 15:38:31;;;;;;;1.85;1.77;;;;;;;;;;4994230;28;20213;-73
2023/07/31 15:40:58;;;;;;;2.10;2.00;;;;;;;;;;4993888;28;20670;-73
2023/07/31 15:43:25;;;;;;;2.42;2.22;;;;;;;;;;4994194;28;20213;-72
2023/07/31 15:45:52;;;;;;;2.00;1.90;;;;;;;;;;4994021;28;20230;-72
2023/07/31 15:48:19;;;;;;;2.22;2.13;;;;;;;;;;4994176;28;20202;-72
2023/07/31 15:50:48;;;;;;;2.30;2.10;;;;;;;;;;4994101;28;20228;-72
2023/07/31 15:53:15;;;;;;;1.90;1.90;;;;;;;;;;4994214;28;20209;-72
2023/07/31 15:55:42;;;;;;;2.03;1.92;;;;;;;;;;4993729;28;20592;-72
2023/07/31 15:58:09;;;;;;;2.10;2.00;;;;;;;;;;4994149;28;20198;-73
2023/07/31 16:00:36;;;;;;;1.50;1.50;;;;;;;;;;4994054;28;20209;-73
2023/07/31 16:03:03;;;;;;;1.45;1.45;;;;;;;;;;4994136;28;20217;-73
2023/07/31 16:05:30;;;;;;;1.52;1.52;;;;;;;;;;4994544;28;20205;-73
2023/07/31 16:07:59;;;;;;;2.15;2.00;;;;;;;;;;4994520;28;20222;-74
2023/07/31 16:10:26;;;;;;;1.85;1.83;;;;;;;;;;4994423;28;20550;-73
2023/07/31 16:12:53;;;;;;;2.47;2.30;;;;;;;;;;4994200;28;20542;-74
2023/07/31 16:15:20;;;;;;;1.73;1.63;;;;;;;;;;4994671;28;20206;-72
2023/07/31 16:17:47;;;;;;;2.00;1.90;;;;;;;;;;4994864;28;20202;-72
2023/07/31 16:20:14;;;;;;;1.42;1.42;;;;;;;;;;4994839;28;20210;-73
2023/07/31 16:22:42;;;;;;;1.40;1.40;;;;;;;;;;4994866;28;20209;-74
2023/07/31 16:25:10;;;;;;;2.10;2.00;;;;;;;;;;5005512;28;20297;-73
2023/07/31 16:27:37;;;;;;;2.13;2.03;;;;;;;;;;5003693;28;20226;-74
2023/07/31 16:30:05;;;;;;;2.58;2.20;;;;;;;;;;4995659;28;20213;-74
2023/07/31 16:32:32;;;;;;;2.38;1.90;;;;;;;;;;4993898;28;20198;-74
2023/07/31 16:34:59;;;;;;;1.98;1.88;;;;;;;;;;4993967;28;20205;-73
2023/07/31 16:37:26;;;;;;;1.95;1.80;;;;;;;;;;4993733;28;20222;-74
2023/07/31 16:39:53;;;;;;;2.22;2.03;;;;;;;;;;4993846;28;20218;-74
2023/07/31 16:42:22;;;;;;;1.80;1.70;;;;;;;;;;4993505;28;20577;-73
2023/07/31 16:44:49;;;;;;;1.67;1.67;;;;;;;;;;4994840;28;20213;-73
2023/07/31 16:47:17;;;;;;;2.08;1.98;;;;;;;;;;4997274;28;20284;-73
2023/07/31 16:49:44;;;;;;;1.52;1.33;;;;;;;;;;4997795;28;20221;-70
2023/07/31 16:52:11;;;;;;;1.98;1.90;;;;;;;;;;4997452;28;20202;-70
2023/07/31 16:54:38;;;;;;;1.85;1.73;;;;;;;;;;4997292;28;20229;-70
2023/07/31 16:57:05;;;;;;;1.50;1.40;;;;;;;;;;4996913;28;20225;-70
2023/07/31 16:59:34;;;;;;;1.70;1.60;;;;;;;;;;4997103;28;20202;-72
2023/07/31 17:02:01;;;;;;;1.90;1.80;;;;;;;;;;4997185;28;20202;-71
2023/07/31 17:04:30;;;;;;;1.70;1.60;;;;;;;;;;4996988;28;20222;-71
2023/07/31 17:06:57;;;;;;;1.40;1.40;;;;;;;;;;4996737;28;20229;-72
2023/07/31 17:09:24;;;;;;;1.38;1.38;;;;;;;;;;4996844;28;20205;-72
2023/07/31 17:11:51;;;;;;;1.50;1.40;;;;;;;;;;4996955;28;20213;-72
2023/07/31 17:14:18;;;;;;;1.55;1.45;;;;;;;;;;4996815;28;20213;-72
2023/07/31 17:16:47;;;;;;;1.25;1.25;;;;;;;;;;4996699;28;20226;-72
2023/07/31 17:19:15;;;;;;;1.30;1.30;;;;;;;;;;4996221;28;20709;-72
2023/07/31 17:21:42;;;;;;;1.20;1.20;;;;;;;;;;4996791;28;20285;-72
2023/07/31 17:24:09;;;;;;;1.38;1.30;;;;;;;;;;4996510;28;20669;-72
2023/07/31 17:26:36;;;;;;;1.50;1.40;;;;;;;;;;4996657;28;20313;-74
2023/07/31 17:29:03;;;;;;;1.63;1.60;;;;;;;;;;4997091;28;20199;-74
2023/07/31 17:31:30;;;;;;;1.45;1.42;;;;;;;;;;4997038;28;20198;-74
2023/07/31 17:33:59;;;;;;;1.70;1.60;;;;;;;;;;4996579;28;20609;-74
2023/07/31 17:36:26;;;;;;;1.63;1.63;;;;;;;;;;4996350;28;20721;-73
2023/07/31 17:38:53;;;;;;;1.45;1.45;;;;;;;;;;4996827;28;20206;-73
2023/07/31 17:41:20;;;;;;;1.63;1.63;;;;;;;;;;4996145;28;20670;-73
2023/07/31 17:43:47;;;;;;;1.52;1.52;;;;;;;;;;4996190;28;20561;-73
2023/07/31 17:46:14;;;;;;;1.63;1.60;;;;;;;;;;4995902;28;20605;-72
2023/07/31 17:48:43;;;;;;;1.50;1.50;;;;;;;;;;4995961;28;20669;-72
2023/07/31 17:51:11;;;;;;;1.23;1.23;;;;;;;;;;4996149;28;20206;-72
2023/07/31 17:53:38;;;;;;;1.40;1.40;;;;;;;;;;4996198;28;20203;-72
2023/07/31 17:56:06;;;;;;;1.60;1.50;;;;;;;;;;4995940;28;20226;-73
2023/07/31 17:58:33;;;;;;;1.45;1.45;;;;;;;;;;4996396;28;20229;-73
2023/07/31 18:01:00;;;;;;;1.50;1.50;;;;;;;;;;4996047;28;20222;-72
2023/07/31 18:03:27;;;;;;;1.80;1.70;;;;;;;;;;4996348;28;20210;-72
2023/07/31 18:05:54;;;;;;;1.75;1.65;;;;;;;;;;4995981;28;20268;-72
2023/07/31 18:08:23;;;;;;;1.95;1.85;;;;;;;;;;4995494;28;20724;-73
2023/07/31 18:10:50;;;;;;;2.20;2.10;;;;;;;;;;4995441;28;20553;-73
2023/07/31 18:13:17;;;;;;;2.13;2.03;;;;;;;;;;4995804;28;20213;-73
2023/07/31 18:15:47;;;;;;;1.70;1.60;;;;;;;;;;4995295;28;20728;-74
2023/07/31 18:18:15;;;;;;;1.48;1.40;;;;;;;;;;4995831;28;20206;-73
2023/07/31 18:20:42;;;;;;;1.35;1.35;;;;;;;;;;4995598;28;20187;-73
2023/07/31 18:23:09;;;;;;;1.73;1.63;;;;;;;;;;4995566;28;20202;-73
2023/07/31 18:25:38;;;;;;;1.63;1.60;;;;;;;;;;4995561;28;20209;-73
2023/07/31 18:28:05;;;;;;;1.58;1.58;;;;;;;;;;4995477;28;20253;-72
2023/07/31 18:30:32;;;;;;;0.90;0.90;;;;;;;;;;4995268;28;20316;-73
2023/07/31 18:32:59;;;;;;;1.60;1.50;;;;;;;;;;4995277;28;20670;-73
2023/07/31 18:35:26;;;;;;;1.70;1.60;;;;;;;;;;4994850;28;20661;-73
2023/07/31 18:37:53;;;;;;;1.55;1.45;;;;;;;;;;4995215;28;20557;-73
2023/07/31 18:40:20;;;;;;;1.30;1.30;;;;;;;;;;4995003;28;20206;-73
2023/07/31 18:42:48;;;;;;;1.25;1.25;;;;;;;;;;4994957;28;20213;-73
2023/07/31 18:45:16;;;;;;;1.90;1.80;;;;;;;;;;4994854;28;20205;-72
2023/07/31 18:47:43;;;;;;;1.40;1.40;;;;;;;;;;4994822;28;20233;-73
2023/07/31 18:50:10;;;;;;;1.23;1.23;;;;;;;;;;4994782;28;20213;-73
2023/07/31 18:52:38;;;;;;;1.27;1.27;;;;;;;;;;4994487;28;20666;-73
2023/07/31 18:55:05;;;;;;;1.55;1.45;;;;;;;;;;4994985;28;20222;-73
2023/07/31 18:57:32;;;;;;;1.30;1.30;;;;;;;;;;4995130;28;20225;-73
2023/07/31 19:00:01;;;;;;;1.30;1.30;;;;;;;;;;4995312;28;20217;-73
2023/07/31 19:02:28;;;;;;;1.55;1.50;;;;;;;;;;4995263;28;20213;-75
2023/07/31 19:04:55;;;;;;;1.35;1.35;;;;;;;;;;4995060;28;20205;-74
2023/07/31 19:07:22;;;;;;;1.33;1.33;;;;;;;;;;4994602;28;20310;-73
2023/07/31 19:09:49;;;;;;;1.40;1.30;;;;;;;;;;4994692;28;20195;-71
2023/07/31 19:12:16;;;;;;;1.95;1.85;;;;;;;;;;4994910;28;20206;-74
2023/07/31 19:14:43;;;;;;;1.33;1.33;;;;;;;;;;4994886;28;20202;-74
2023/07/31 19:17:11;;;;;;;1.52;1.52;;;;;;;;;;4994704;28;20234;-73
2023/07/31 19:19:39;;;;;;;1.38;1.38;;;;;;;;;;4994653;28;20221;-74
2023/07/31 19:22:06;;;;;;;1.55;1.50;;;;;;;;;;4994762;28;20210;-71
2023/07/31 19:24:33;;;;;;;1.52;1.50;;;;;;;;;;4994817;28;20213;-71
2023/07/31 19:27:00;;;;;;;1.40;1.40;;;;;;;;;;4994705;28;20226;-70
2023/07/31 19:29:27;;;;;;;1.38;1.38;;;;;;;;;;4994661;28;20229;-70
2023/07/31 19:31:54;;;;;;;1.17;1.17;;;;;;;;;;4994767;28;20198;-71
2023/07/31 19:34:23;;;;;;;1.27;1.20;;;;;;;;;;4993968;28;20677;-71
2023/07/31 19:36:51;;;;;;;1.13;1.13;;;;;;;;;;4994043;28;20226;-71
2023/07/31 19:39:18;;;;;;;1.48;1.40;;;;;;;;;;4994360;28;20256;-71
2023/07/31 19:41:46;;;;;;;1.17;1.17;;;;;;;;;;4994321;28;20210;-71
2023/07/31 19:44:13;;;;;;;1.35;1.35;;;;;;;;;;4994160;28;20550;-71
2023/07/31 19:46:40;;;;;;;1.50;1.40;;;;;;;;;;4993698;28;20233;-71
2023/07/31 19:49:07;;;;;;;1.30;1.30;;;;;;;;;;4993968;28;20233;-71
2023/07/31 19:51:35;;;;;;;1.35;1.35;;;;;;;;;;4994032;28;20211;-71
2023/07/31 19:54:02;;;;;;;1.38;1.38;;;;;;;;;;4993959;28;20209;-71
2023/07/31 19:56:29;;;;;;;1.50;1.50;;;;;;;;;;4993951;28;20226;-72
2023/07/31 19:58:56;;;;;;;1.38;1.38;;;;;;;;;;4994040;28;20203;-71
2023/07/31 20:01:24;;;;;;;1.42;1.30;;;;;;;;;;4994030;28;20206;-71
2023/07/31 20:03:53;;;;;;;1.20;1.20;;;;;;;;;;4994067;28;20578;-70
2023/07/31 20:06:20;;;;;;;1.20;1.20;;;;;;;;;;4994224;28;20280;-70
2023/07/31 20:08:48;;;;;;;1.45;1.45;;;;;;;;;;4996296;28;20226;-70
2023/07/31 20:11:15;;;;;;;1.10;1.10;;;;;;;;;;4995989;28;20206;-70
2023/07/31 20:13:42;;;;;;;1.10;1.10;;;;;;;;;;4994536;28;20682;-71
2023/07/31 20:16:09;;;;;;;1.25;1.25;;;;;;;;;;4993738;28;20218;-71
2023/07/31 20:18:40;;;;;;;1.27;1.27;;;;;;;;;;4993355;28;20700;-71
2023/07/31 20:21:07;;;;;;;1.83;1.73;;;;;;;;;;4996669;28;20187;-72
2023/07/31 20:23:34;;;;;;;1.52;1.52;;;;;;;;;;4997722;28;20225;-72
2023/07/31 20:26:02;;;;;;;1.20;1.20;;;;;;;;;;4997574;28;20241;-72
2023/07/31 20:28:29;;;;;;;1.50;1.50;;;;;;;;;;4997597;28;20705;-73
2023/07/31 20:30:56;;;;;;;1.88;1.70;;;;;;;;;;4997579;28;20214;-75
2023/07/31 20:33:23;;;;;;;1.55;1.45;;;;;;;;;;4997587;28;20202;-76
2023/07/31 20:35:51;;;;;;;1.73;1.67;;;;;;;;;;4997593;28;20229;-76
2023/07/31 20:38:18;;;;;;;1.77;1.67;;;;;;;;;;4997523;28;20199;-76
2023/07/31 20:40:45;;;;;;;1.60;1.50;;;;;;;;;;4997318;28;20206;-77